地図

経路データ

SID SEASON NUMBER BASIN SUBBASIN NAME ISO_TIME NATURE LAT LON WMO_WIND WMO_PRES WMO_AGENCY TRACK_TYPE DIST2LAND LANDFALL IFLAG USA_AGENCY USA_ATCF_ID USA_LAT USA_LON USA_RECORD USA_STATUS USA_WIND USA_PRES USA_SSHS USA_R34_NE USA_R34_SE USA_R34_SW USA_R34_NW USA_R50_NE USA_R50_SE USA_R50_SW USA_R50_NW USA_R64_NE USA_R64_SE USA_R64_SW USA_R64_NW USA_POCI USA_ROCI USA_RMW USA_EYE TOKYO_LAT TOKYO_LON TOKYO_GRADE TOKYO_WIND TOKYO_PRES TOKYO_R50_DIR TOKYO_R50_LONG TOKYO_R50_SHORT TOKYO_R30_DIR TOKYO_R30_LONG TOKYO_R30_SHORT TOKYO_LAND CMA_LAT CMA_LON CMA_CAT CMA_WIND CMA_PRES HKO_LAT HKO_LON HKO_CAT HKO_WIND HKO_PRES NEWDELHI_LAT NEWDELHI_LON NEWDELHI_GRADE NEWDELHI_WIND NEWDELHI_PRES NEWDELHI_CI NEWDELHI_DP NEWDELHI_POCI REUNION_LAT REUNION_LON REUNION_TYPE REUNION_WIND REUNION_PRES REUNION_TNUM REUNION_CI REUNION_RMW REUNION_R34_NE REUNION_R34_SE REUNION_R34_SW REUNION_R34_NW REUNION_R50_NE REUNION_R50_SE REUNION_R50_SW REUNION_R50_NW REUNION_R64_NE REUNION_R64_SE REUNION_R64_SW REUNION_R64_NW BOM_LAT BOM_LON BOM_TYPE BOM_WIND BOM_PRES BOM_TNUM BOM_CI BOM_RMW BOM_R34_NE BOM_R34_SE BOM_R34_SW BOM_R34_NW BOM_R50_NE BOM_R50_SE BOM_R50_SW BOM_R50_NW BOM_R64_NE BOM_R64_SE BOM_R64_SW BOM_R64_NW BOM_ROCI BOM_POCI BOM_EYE BOM_POS_METHOD BOM_PRES_METHOD NADI_LAT NADI_LON NADI_CAT NADI_WIND NADI_PRES WELLINGTON_LAT WELLINGTON_LON WELLINGTON_WIND WELLINGTON_PRES DS824_LAT DS824_LON DS824_STAGE DS824_WIND DS824_PRES TD9636_LAT TD9636_LON TD9636_STAGE TD9636_WIND TD9636_PRES TD9635_LAT TD9635_LON TD9635_WIND TD9635_PRES TD9635_ROCI NEUMANN_LAT NEUMANN_LON NEUMANN_CLASS NEUMANN_WIND NEUMANN_PRES MLC_LAT MLC_LON MLC_CLASS MLC_WIND MLC_PRES USA_GUST BOM_GUST BOM_GUST_PER REUNION_GUST REUNION_GUST_PER USA_SEAHGT USA_SEARAD_NE USA_SEARAD_SE USA_SEARAD_SW USA_SEARAD_NW STORM_SPEED STORM_DIR
1887241N12323 1887 39 NA NA NOT_NAMED 1887-08-28 12:00:00 TS 12.1000 -37.0000 main 1708 1706 _____________O -1 12.1000 -37.0000 TS 35 15 302
1887241N12323 1887 39 NA NA NOT_NAMED 1887-08-28 15:00:00 TS 12.5004 -37.6621 main 1740 1723 _____________P -1 12.5004 -37.6621 TS 35 15 302
1887241N12323 1887 39 NA NA NOT_NAMED 1887-08-28 18:00:00 TS 12.9000 -38.3000 main 1723 1694 _____________O -1 12.9000 -38.3000 TS 35 15 304
1887241N12323 1887 39 NA NA NOT_NAMED 1887-08-28 21:00:00 TS 13.2998 -38.9003 main 1694 1669 _____________P -1 13.2998 -38.9003 TS 35 14 304
1887241N12323 1887 39 NA NA NOT_NAMED 1887-08-29 00:00:00 TS 13.7000 -39.5000 main 1669 1647 _____________O -1 13.7000 -39.5000 TS 35 15 304
1887241N12323 1887 39 NA NA NOT_NAMED 1887-08-29 03:00:00 TS 14.1074 -40.1501 main 1639 1621 _____________P -1 14.1074 -40.1501 TS 35 15 302
1887241N12323 1887 39 NA NA NOT_NAMED 1887-08-29 06:00:00 TS 14.5000 -40.8000 main 1621 1599 _____________O -1 14.5000 -40.8000 TS 35 14 302
1887241N12323 1887 39 NA NA NOT_NAMED 1887-08-29 09:00:00 TS 14.8497 -41.4004 main 1599 1588 _____________P -1 14.8497 -41.4004 TS 35 14 301
1887241N12323 1887 39 NA NA NOT_NAMED 1887-08-29 12:00:00 TS 15.2000 -42.0000 main 1589 1574 _____________O -1 15.2000 -42.0000 TS 35 14 302
1887241N12323 1887 39 NA NA NOT_NAMED 1887-08-29 15:00:00 TS 15.5924 -42.6501 main 1577 1569 _____________P -1 15.5924 -42.6501 TS 37 15 303
1887241N12323 1887 39 NA NA NOT_NAMED 1887-08-29 18:00:00 TS 16.0000 -43.3000 main 1575 1568 _____________O -1 16.0000 -43.3000 TS 40 15 304
1887241N12323 1887 39 NA NA NOT_NAMED 1887-08-29 21:00:00 TS 16.3997 -43.9003 main 1573 1565 _____________P -1 16.3997 -43.9003 TS 42 14 305
1887241N12323 1887 39 NA NA NOT_NAMED 1887-08-30 00:00:00 TS 16.8000 -44.5000 main 1570 1563 _____________O -1 16.8000 -44.5000 TS 45 14 304
1887241N12323 1887 39 NA NA NOT_NAMED 1887-08-30 03:00:00 TS 17.1924 -45.1503 main 1567 1564 _____________P -1 17.1924 -45.1503 TS 47 15 303
1887241N12323 1887 39 NA NA NOT_NAMED 1887-08-30 06:00:00 TS 17.6000 -45.8000 main 1573 1568 _____________O -1 17.6000 -45.8000 TS 50 15 305
1887241N12323 1887 39 NA NA NOT_NAMED 1887-08-30 09:00:00 TS 18.0422 -46.4003 main 1583 1583 _____________P -1 18.0422 -46.4003 TS 52 15 308
1887241N12323 1887 39 NA NA NOT_NAMED 1887-08-30 12:00:00 TS 18.5000 -47.0000 main 1606 1602 _____________O -1 18.5000 -47.0000 TS 55 15 307
1887241N12323 1887 39 NA NA NOT_NAMED 1887-08-30 15:00:00 TS 18.9349 -47.6504 main 1617 1617 _____________P -1 18.9349 -47.6504 TS 57 15 306
1887241N12323 1887 39 NA NA NOT_NAMED 1887-08-30 18:00:00 TS 19.4000 -48.3000 main 1640 1640 _____________O -1 19.4000 -48.3000 TS 60 15 310
1887241N12323 1887 39 NA NA NOT_NAMED 1887-08-30 21:00:00 TS 19.9272 -48.9005 main 1655 1648 _____________P -1 19.9272 -48.9005 TS 60 16 314
1887241N12323 1887 39 NA NA NOT_NAMED 1887-08-31 00:00:00 TS 20.5000 -49.5000 main 1648 1638 _____________O -1 20.5000 -49.5000 TS 60 17 315
1887241N12323 1887 39 NA NA NOT_NAMED 1887-08-31 03:00:00 TS 21.0849 -50.1504 main 1638 1588 _____________P -1 21.0849 -50.1504 TS 62 17 315
1887241N12323 1887 39 NA NA NOT_NAMED 1887-08-31 06:00:00 TS 21.7000 -50.8000 main 1588 1542 _____________O -1 21.7000 -50.8000 HU 65 17 317
1887241N12323 1887 39 NA NA NOT_NAMED 1887-08-31 09:00:00 TS 22.3496 -51.4006 main 1542 1504 _____________P -1 22.3496 -51.4006 HU 65 17 320
1887241N12323 1887 39 NA NA NOT_NAMED 1887-08-31 12:00:00 TS 23.0000 -52.0000 main 1504 1464 _____________O -1 23.0000 -52.0000 HU 65 17 317
1887241N12323 1887 39 NA NA NOT_NAMED 1887-08-31 15:00:00 TS 23.5999 -52.6506 main 1458 1428 _____________P -1 23.5999 -52.6506 HU 65 17 315
1887241N12323 1887 39 NA NA NOT_NAMED 1887-08-31 18:00:00 TS 24.2000 -53.3000 main 1428 1398 _____________O -1 24.2000 -53.3000 HU 65 17 316
1887241N12323 1887 39 NA NA NOT_NAMED 1887-08-31 21:00:00 TS 24.8502 -53.9597 main 1400 1400 _____________P -1 24.8502 -53.9597 HU 67 23 339
1887241N12323 1887 39 NA NA NOT_NAMED 1887-09-01 00:00:00 TS 26.3667 -54.2333 35 hurdat_atl main 1472 1470 O____________O hurdat_atl AL081887 28.1000 -53.7000 TS 35 0 25.5000 -54.5000 HU 70 24 350
1887241N12323 1887 39 NA NA NOT_NAMED 1887-09-01 03:00:00 TS 27.2324 -54.4353 main 1509 1509 P____________P AL081887 28.3653 -54.0669 TS 37 0 26.0995 -54.8037 HU 70 15 346
1887241N12323 1887 39 NA NA NOT_NAMED 1887-09-01 06:00:00 TS 27.8400 -54.6400 40 hurdat_atl main 1537 1537 O____________O hurdat_atl AL081887 28.6000 -54.4000 TS 40 0 26.7000 -55.0000 HU 70 12 340
1887241N12323 1887 39 NA NA NOT_NAMED 1887-09-01 09:00:00 TS 28.3115 -54.8738 main 1552 1552 P____________P AL081887 28.7922 -54.6855 TS 42 0 27.3500 -55.2502 HU 70 10 331
1887241N12323 1887 39 NA NA NOT_NAMED 1887-09-01 12:00:00 TS 28.6667 -55.1667 45 hurdat_atl main 1562 1562 O____________O hurdat_atl AL081887 29.0000 -55.0000 TS 45 0 28.0000 -55.5000 HU 70 9 322
1887241N12323 1887 39 NA NA NOT_NAMED 1887-09-01 15:00:00 TS 29.0466 -55.5229 main 1566 1566 P____________P AL081887 29.2699 -55.4128 TS 47 0 28.5999 -55.7430 HU 70 10 320
1887241N12323 1887 39 NA NA NOT_NAMED 1887-09-01 18:00:00 TS 29.4667 -55.9333 50 hurdat_atl main 1582 1576 O____________O hurdat_atl AL081887 29.6000 -55.9000 TS 50 0 29.2000 -56.0000 HU 70 12 320
1887241N12323 1887 39 NA NA NOT_NAMED 1887-09-01 21:00:00 TS 29.9701 -56.4021 main 1595 1589 P____________P AL081887 29.9927 -56.4572 TS 52 0 29.9250 -56.2919 HU 72 13 320
1887241N12323 1887 39 NA NA NOT_NAMED 1887-09-02 00:00:00 TS 30.4333 -56.8667 55 hurdat_atl main 1602 1593 O____________O hurdat_atl AL081887 30.4000 -57.0000 TS 55 0 30.5000 -56.6000 HU 75 10 314
1887241N12323 1887 39 NA NA NOT_NAMED 1887-09-02 03:00:00 TS 30.6698 -57.2570 main 1589 1557 P____________P AL081887 30.7422 -57.4307 TS 60 0 30.5250 -56.9096 HU 75 8 310
1887241N12323 1887 39 NA NA NOT_NAMED 1887-09-02 06:00:00 TS 30.9667 -57.6000 65 hurdat_atl main 1547 1485 O____________O hurdat_atl AL081887 31.1000 -57.8000 HU 65 1 30.7000 -57.2000 HU 75 11 325
1887241N12323 1887 39 NA NA NOT_NAMED 1887-09-02 09:00:00 TS 31.5301 -57.9587 main 1481 1392 P____________P AL081887 31.4376 -58.1953 HU 70 1 31.7152 -57.4857 HU 75 15 338
1887241N12323 1887 39 NA NA NOT_NAMED 1887-09-02 12:00:00 TS 32.3333 -58.2333 75 hurdat_atl main 1392 1283 O____________O hurdat_atl AL081887 32.0000 -58.5000 HU 75 1 33.0000 -57.7000 HU 75 18 348
1887241N12323 1887 39 NA NA NOT_NAMED 1887-09-02 15:00:00 TS 33.3273 -58.4148 main 1283 1173 P____________P AL081887 32.9798 -58.7172 HU 77 1 34.0223 -57.8102 HU 77 21 356
1887241N12323 1887 39 NA NA NOT_NAMED 1887-09-02 18:00:00 TS 34.4667 -58.4000 80 hurdat_atl main 1164 1067 O____________O hurdat_atl AL081887 34.2000 -58.7000 HU 80 1 35.0000 -57.8000 HU 80 23 5
1887241N12323 1887 39 NA NA NOT_NAMED 1887-09-02 21:00:00 TS 35.6382 -58.1507 main 1067 983 P____________P AL081887 35.4574 -58.3712 HU 82 1 35.9999 -57.7095 HU 82 24 14
1887241N12323 1887 39 NA NA NOT_NAMED 1887-09-03 00:00:00 TS 36.8000 -57.7000 85 hurdat_atl main 976 881 O____________O hurdat_atl AL081887 36.7000 -57.8000 HU 85 2 37.0000 -57.5000 HU 85 23 18
1887241N12323 1887 39 NA NA NOT_NAMED 1887-09-03 03:00:00 TS 37.8467 -57.2369 main 884 802 P____________P AL081887 37.7710 -57.2078 HU 87 2 37.9982 -57.2951 HU 87 23 24
1887241N12323 1887 39 NA NA NOT_NAMED 1887-09-03 06:00:00 TS 38.8667 -56.5333 90 hurdat_atl main 796 744 O____________O hurdat_atl AL081887 38.8000 -56.4000 HU 90 2 39.0000 -56.8000 HU 90 24 33
1887241N12323 1887 39 NA NA NOT_NAMED 1887-09-03 09:00:00 TS 39.8608 -55.5886 main 740 636 P____________P AL081887 39.8505 -55.4064 HU 90 2 39.8814 -55.9528 HU 90 28 40
1887241N12323 1887 39 NA NA NOT_NAMED 1887-09-03 12:00:00 TS 41.0000 -54.1667 90 hurdat_atl main 624 482 O____________O hurdat_atl AL081887 41.0000 -54.0000 HU 90 2 41.0000 -54.5000 HU 90 37 45
1887241N12323 1887 39 NA NA NOT_NAMED 1887-09-03 15:00:00 TS 42.4343 -52.1211 main 474 400 P____________P AL081887 42.3120 -52.0565 HU 90 2 42.6791 -52.2505 HU 90 45 48
1887241N12323 1887 39 NA NA NOT_NAMED 1887-09-03 18:00:00 TS 43.9667 -49.6333 90 hurdat_atl main 402 402 O____________O hurdat_atl AL081887 43.7000 -49.7000 HU 90 2 44.5000 -49.5000 HU 90 47 51
1887241N12323 1887 39 NA NA NOT_NAMED 1887-09-03 21:00:00 TS 45.3879 -47.0481 main 486 486 P____________P AL081887 45.0432 -47.1310 HU 90 2 46.0774 -46.8825 HU 92 46 53
1887241N12323 1887 39 NA NA NOT_NAMED 1887-09-04 00:00:00 TS 46.7667 -44.3333 90 963 hurdat_atl main 629 629 O____________O hurdat_atl AL081887 46.4000 -44.5000 HU 90 963 2 47.5000 -44.0000 HU 95 46 54
1887241N12323 1887 39 NA NA NOT_NAMED 1887-09-04 03:00:00 TS 48.0937 -41.5650 main 819 819 P____________P AL081887 47.7860 -42.0495 HU 90 2 48.7091 -40.5959 HU 92 45 55
1887241N12323 1887 39 NA NA NOT_NAMED 1887-09-04 06:00:00 TS 49.4000 -38.8000 90 hurdat_atl main 1030 1030 O____________O hurdat_atl AL081887 49.2000 -39.7000 HU 90 2 49.8000 -37.0000 HU 90 46 54
1887241N12323 1887 39 NA NA NOT_NAMED 1887-09-04 09:00:00 TS 50.8216 -35.8727 main 1123 1079 P____________P AL081887 50.7366 -37.2003 HU 85 2 50.9917 -33.2176 HU 85 43 53
1887241N12323 1887 39 NA NA NOT_NAMED 1887-09-04 12:00:00 MX 52.0000 -33.3333 80 hurdat_atl main 1079 1070 O____________O hurdat_atl AL081887 52.0000 -35.0000 EX 80 -4 52.0000 -30.0000 HU 80 31 54
1887241N12323 1887 39 NA NA NOT_NAMED 1887-09-04 15:00:00 MX 52.6380 -31.7400 main 1082 1073 P____________P AL081887 52.6258 -33.5239 EX 75 -4 52.6625 -28.1723 HU 75 20 57
1887241N12323 1887 39 NA NA NOT_NAMED 1887-09-04 18:00:00 MX 53.0667 -30.6000 70 hurdat_atl main 1082 1082 O____________O hurdat_atl AL081887 53.0000 -32.4000 EX 70 -4 53.2000 -27.0000 HU 70 18 58
1887241N12323 1887 39 NA NA NOT_NAMED 1887-09-04 21:00:00 MX 53.5892 -29.2068 main 1102 1102 P____________P AL081887 53.5060 -31.0625 EX 65 -4 53.7556 -25.4953 HU 65 19 58
1887241N12323 1887 39 NA NA NOT_NAMED 1887-09-05 00:00:00 ET 54.1000 -27.8000 60 hurdat_atl main 1111 1040 O____________O hurdat_atl AL081887 54.0000 -29.7000 EX 60 -4 54.3000 -24.0000 EX 60 19 59
1887241N12323 1887 39 NA NA NOT_NAMED 1887-09-05 03:00:00 ET 54.5897 -26.4216 main 1039 982 P____________P AL081887 54.4605 -28.3844 EX 60 -4 54.8482 -22.4959 EX 60 17 57
1887241N12323 1887 39 NA NA NOT_NAMED 1887-09-05 06:00:00 ET 55.0364 -25.2909 60 hurdat_atl main 975 901 O____________O hurdat_atl AL081887 54.9000 -26.9000 EX 60 -4 55.4000 -21.0000 EX 60 17 57
1887241N12323 1887 39 NA NA NOT_NAMED 1887-09-05 09:00:00 ET 55.5057 -23.9962 main 894 804 P____________P AL081887 55.3937 -25.1181 EX 60 -4 55.9536 -19.5086 EX 60 18 65
1887241N12323 1887 39 NA NA NOT_NAMED 1887-09-05 12:00:00 ET 55.7889 -22.4444 60 hurdat_atl main 798 684 O____________O hurdat_atl AL081887 55.7000 -23.0000 EX 60 -4 56.5000 -18.0000 EX 60 20 88
1887241N12323 1887 39 NA NA NOT_NAMED 1887-09-05 15:00:00 ET 55.5722 -20.5020 main 678 530 P_____________ AL081887 55.5722 -20.5020 EX 60 -4 EX 25 101
1887241N12323 1887 39 NA NA NOT_NAMED 1887-09-05 18:00:00 ET 55.3000 -18.1000 60 hurdat_atl main 524 411 O_____________ hurdat_atl AL081887 55.3000 -18.1000 EX 60 -4 24 99
1887241N12323 1887 39 NA NA NOT_NAMED 1887-09-05 21:00:00 ET 55.1972 -16.2548 main 411 314 P_____________ AL081887 55.1972 -16.2548 EX 57 -4 20 93
1887241N12323 1887 39 NA NA NOT_NAMED 1887-09-06 00:00:00 ET 55.2000 -14.6000 55 hurdat_atl main 308 210 O_____________ hurdat_atl AL081887 55.2000 -14.6000 EX 55 -4 19 88
1887241N12323 1887 39 NA NA NOT_NAMED 1887-09-06 03:00:00 ET 55.2522 -12.8212 main 211 147 P_____________ AL081887 55.2522 -12.8212 EX 52 -4 20 84
1887241N12323 1887 39 NA NA NOT_NAMED 1887-09-06 06:00:00 ET 55.4000 -11.0000 50 hurdat_atl main 144 79 O_____________ hurdat_atl AL081887 55.4000 -11.0000 EX 50 -4 21 80
1887241N12323 1887 39 NA NA NOT_NAMED 1887-09-06 09:00:00 ET 55.6337 -9.12390 main 74 58 P_____________ AL081887 55.6337 -9.12390 EX 50 -4 22 77
1887241N12323 1887 39 NA NA NOT_NAMED 1887-09-06 12:00:00 ET 55.9000 -7.20000 50 hurdat_atl main 66 O_____________ hurdat_atl AL081887 55.9000 -7.20000 EX 50 -4 22 76

IBTrACS Databaseについて

本データベースは、米国NOAAが公開する1842年以降の世界の熱帯低気圧のベストトラックデータアーカイブInternational Best Track Archive for Climate Stewardship (IBTrACS)を、ウェブで閲覧しやすい形式に変換したものです。

最終更新日:2021-12-08